Date,TemperatureHighF,TemperatureAvgF,TemperatureLowF,DewpointHighF,DewpointAvgF,DewpointLowF,HumidityHigh,HumidityAvg,HumidityLow,PressureMaxIn,PressureMinIn,WindSpeedMaxMPH,WindSpeedAvgMPH,GustSpeedMaxMPH,PrecipitationSumIn
2013-1-1,40.5,37.5,27.4,30.0,24.9,12.0,71,61,48,30.02,29.83,18,8,23,0.00
2013-1-2,33.7,28.5,23.5,18.0,13.7,11.0,61,54,44,30.18,30.00,14,7,22,0.00
2013-1-3,33.6,30.1,26.1,20.0,17.4,15.0,70,60,49,30.20,30.07,11,5,20,0.00
2013-1-4,38.1,35.3,32.2,24.0,22.5,21.0,67,60,52,30.09,29.95,16,7,22,0.00
2013-1-5,43.7,37.9,33.1,25.0,22.4,19.0,61,54,45,30.28,30.02,16,6,25,0.00
2013-1-6,46.8,40.3,33.7,33.0,29.4,24.0,90,67,49,30.23,29.98,11,5,14,0.00
2013-1-7,45.4,41.0,34.7,30.0,26.3,21.0,70,57,39,30.40,30.06,15,4,20,0.00
2013-1-8,48.9,41.9,34.9,34.0,31.1,27.0,78,66,54,30.44,30.34,14,4,16,0.00
2013-1-9,50.7,44.2,36.7,40.0,35.7,31.0,86,73,63,30.39,30.13,13,3,20,0.00
2013-1-10,48.7,44.9,40.7,35.0,26.6,24.0,64,49,38,30.54,30.23,19,7,27,0.00
2013-1-11,46.7,42.3,37.5,46.0,35.2,26.0,97,77,56,30.54,30.09,8,2,12,0.52
2013-1-12,46.6,44.5,43.0,46.0,43.7,42.0,98,97,94,30.18,30.07,10,3,14,0.04
2013-1-13,48.0,45.1,42.7,48.0,44.8,42.0,99,98,97,30.16,30.01,8,2,14,0.00
2013-1-14,57.5,50.5,39.4,54.0,44.6,34.0,100,82,52,30.30,29.93,14,5,20,0.04
2013-1-15,39.1,37.7,35.7,35.0,29.1,26.0,89,72,61,30.34,30.22,10,4,12,0.13
2013-1-16,38.3,35.5,33.3,35.5,33.8,30.0,96,93,82,30.21,29.80,18,4,18,0.84
2013-1-17,43.7,40.6,36.1,35.1,29.4,25.4,88,65,54,30.10,29.91,17,6,18,0.00
2013-1-18,36.1,29.5,25.7,25.8,12.3,3.5,66,49,32,30.49,29.99,19,6,21,0.00
2013-1-19,52.4,41.3,29.8,30.6,25.4,13.5,71,54,38,30.41,29.93,25,7,25,0.00
2013-1-20,54.7,44.2,31.0,31.5,24.5,11.0,69,48,23,30.04,29.69,29,8,31,0.00
2013-1-21,32.4,30.0,27.5,21.7,13.6,7.8,66,50,41,30.10,29.83,20,4,20,0.00
2013-1-22,28.6,20.8,14.4,16.4,2.8,-8.0,70,46,30,30.22,29.83,25,10,25,0.00
2013-1-23,19.3,15.7,12.2,1.5,-2.3,-6.1,56,44,34,30.26,30.17,21,7,22,0.00
2013-1-24,23.5,18.5,14.7,4.9,0.8,-4.3,62,46,31,30.40,30.13,29,8,30,0.00
2013-1-25,24.6,18.9,14.3,18.3,7.7,-2.0,89,62,45,30.42,30.07,20,4,22,0.00
2013-1-26,28.3,21.9,17.2,14.3,10.0,6.0,78,61,43,30.38,30.05,23,7,23,0.00
2013-1-27,35.2,28.0,20.9,14.2,11.6,8.0,69,51,35,30.53,30.37,17,5,17,0.00
2013-1-28,36.5,32.6,27.2,34.4,26.0,13.4,94,78,49,30.49,30.01,14,3,14,0.22
2013-1-29,50.4,42.8,36.5,43.0,39.5,34.1,95,88,71,30.19,30.00,15,3,15,0.03
2013-1-30,52.8,48.7,41.0,52.0,47.7,39.0,99,96,91,30.09,29.38,24,7,24,0.02
2013-1-31,58.0,44.6,30.4,57.7,31.1,9.8,99,62,35,29.79,29.05,30,13,41,0.31